createdAt,value
2018-12-29T00:03:43.433Z,19.60
2018-12-29T00:08:47.709Z,19.13
2018-12-29T00:13:51.381Z,18.47
2018-12-29T00:18:55.074Z,18.13
2018-12-29T00:23:58.779Z,17.13
2018-12-29T00:29:02.742Z,17.80
2018-12-29T00:34:06.478Z,18.10
2018-12-29T00:39:10.133Z,18.47
2018-12-29T00:44:13.805Z,17.87
2018-12-29T00:49:17.492Z,18.57
2018-12-29T00:54:21.177Z,19.53
2018-12-29T00:59:24.846Z,17.70
2018-12-29T01:04:29.061Z,18.27
2018-12-29T01:09:33.317Z,17.93
2018-12-29T01:14:37.248Z,17.70
2018-12-29T01:19:40.965Z,18.50
2018-12-29T01:24:44.698Z,18.60
2018-12-29T01:29:48.374Z,17.73
2018-12-29T01:34:52.058Z,16.70
2018-12-29T01:39:55.734Z,14.63
2018-12-29T01:44:59.447Z,14.17
2018-12-29T01:50:03.186Z,13.87
2018-12-29T01:55:06.913Z,13.87
2018-12-29T02:00:10.577Z,13.63
2018-12-29T02:05:14.602Z,13.00
2018-12-29T02:10:18.285Z,13.57
2018-12-29T02:15:24.912Z,12.43
2018-12-29T02:20:28.032Z,11.67
2018-12-29T02:25:31.725Z,11.20
2018-12-29T02:30:35.437Z,10.30
2018-12-29T02:35:39.199Z,10.63
2018-12-29T02:40:42.912Z,10.03
2018-12-29T02:45:46.590Z,10.27
2018-12-29T02:50:50.558Z,10.53
2018-12-29T02:55:54.320Z,10.60
2018-12-29T03:00:58.207Z,11.20
2018-12-29T03:06:02.195Z,11.00
2018-12-29T03:11:05.858Z,9.97
2018-12-29T03:16:09.523Z,11.23
2018-12-29T03:21:13.251Z,10.27
2018-12-29T03:26:16.996Z,11.20
2018-12-29T03:31:20.869Z,10.63
2018-12-29T03:36:24.662Z,9.57
2018-12-29T03:41:28.351Z,10.80
2018-12-29T03:46:32.045Z,10.43
2018-12-29T03:51:35.749Z,10.70
2018-12-29T03:56:39.758Z,10.73
2018-12-29T04:01:43.420Z,11.17
2018-12-29T04:06:47.123Z,12.10
2018-12-29T04:11:50.810Z,13.47
2018-12-29T04:16:54.740Z,13.07
2018-12-29T04:21:58.424Z,13.20
2018-12-29T04:27:02.115Z,13.33
2018-12-29T04:32:05.805Z,14.17
2018-12-29T04:37:09.506Z,13.60
2018-12-29T04:42:13.227Z,13.60
2018-12-29T04:47:16.886Z,13.07
2018-12-29T04:52:20.820Z,13.70
2018-12-29T04:57:24.723Z,13.13
2018-12-29T05:02:28.420Z,12.60
2018-12-29T05:07:32.089Z,12.77
2018-12-29T05:12:35.828Z,13.47
2018-12-29T05:17:39.891Z,13.43
2018-12-29T05:22:43.572Z,13.10
2018-12-29T05:27:47.327Z,13.87
2018-12-29T05:32:51.412Z,13.67
2018-12-29T05:37:55.117Z,14.20
2018-12-29T05:42:58.812Z,13.53
2018-12-29T05:48:02.828Z,13.57
2018-12-29T05:53:06.557Z,12.83
2018-12-29T05:58:10.633Z,10.97
2018-12-29T06:03:14.412Z,11.93
2018-12-29T06:08:18.122Z,13.00
2018-12-29T06:13:22.118Z,14.17
2018-12-29T06:18:25.812Z,15.50
2018-12-29T06:23:29.480Z,15.57
2018-12-29T06:28:33.492Z,16.07
2018-12-29T06:33:37.171Z,14.77
2018-12-29T06:38:40.885Z,15.27
2018-12-29T06:43:44.634Z,15.63
2018-12-29T06:48:48.341Z,15.67
2018-12-29T06:53:52.615Z,15.47
2018-12-29T06:58:56.553Z,14.43
2018-12-29T07:04:00.250Z,13.50
2018-12-29T07:09:05.755Z,13.50
2018-12-29T07:14:09.447Z,14.57
2018-12-29T07:19:13.717Z,15.47
2018-12-29T07:24:17.770Z,14.83
2018-12-29T07:29:21.494Z,16.40
2018-12-29T07:34:25.464Z,16.70
2018-12-29T07:39:29.708Z,14.33
2018-12-29T07:44:33.444Z,14.20
2018-12-29T07:49:37.527Z,14.27
2018-12-29T07:54:41.720Z,13.93
2018-12-29T07:59:45.427Z,11.63
2018-12-29T08:04:49.132Z,13.27
2018-12-29T08:09:52.877Z,12.10
2018-12-29T08:14:56.580Z,11.73
2018-12-29T08:20:22.375Z,14.13
2018-12-29T08:25:26.718Z,13.10
2018-12-29T08:30:30.443Z,15.33
2018-12-29T08:35:34.153Z,15.30
2018-12-29T08:40:37.891Z,15.97
2018-12-29T08:45:41.593Z,15.53
2018-12-29T08:50:45.345Z,16.43
2018-12-29T08:55:49.134Z,15.83
2018-12-29T09:00:52.849Z,17.87
2018-12-29T09:05:56.565Z,17.10
2018-12-29T09:11:00.252Z,16.53
2018-12-29T09:16:03.931Z,17.63
2018-12-29T09:21:07.697Z,14.83
2018-12-29T09:26:11.493Z,15.90
2018-12-29T09:31:15.818Z,18.47
2018-12-29T09:36:21.320Z,16.37
2018-12-29T09:41:25.224Z,14.47
2018-12-29T09:46:28.910Z,15.60
2018-12-29T09:51:32.624Z,15.40
2018-12-29T09:56:36.352Z,13.67
2018-12-29T10:01:40.065Z,13.40
2018-12-29T10:06:43.757Z,11.90
2018-12-29T10:11:47.739Z,13.23
2018-12-29T10:16:51.514Z,12.07
2018-12-29T10:21:55.499Z,12.93
2018-12-29T10:26:59.244Z,12.40
2018-12-29T10:32:03.022Z,12.97
2018-12-29T10:37:06.790Z,13.83
2018-12-29T10:42:10.729Z,14.60
2018-12-29T10:47:14.707Z,15.07
2018-12-29T10:52:18.436Z,15.10
2018-12-29T10:57:22.234Z,16.17
2018-12-29T11:02:26.212Z,16.13
2018-12-29T11:07:29.909Z,16.00
2018-12-29T11:12:33.908Z,17.07
2018-12-29T11:17:42.154Z,17.07
2018-12-29T11:22:43.399Z,16.37
2018-12-29T11:27:47.425Z,17.23
2018-12-29T11:32:51.413Z,16.50
2018-12-29T11:37:55.096Z,17.07
2018-12-29T11:42:58.796Z,15.87
2018-12-29T11:48:02.471Z,16.03
2018-12-29T11:53:06.164Z,15.53
2018-12-29T11:58:09.847Z,16.23
2018-12-29T12:03:13.501Z,15.93
2018-12-29T12:08:17.215Z,14.10
2018-12-29T12:13:20.877Z,13.73
2018-12-29T12:18:24.899Z,14.33
2018-12-29T12:23:28.596Z,12.40
2018-12-29T12:28:32.267Z,11.20
2018-12-29T12:33:35.963Z,11.30
2018-12-29T12:38:39.629Z,11.00
2018-12-29T12:43:43.287Z,10.43
2018-12-29T12:48:47.649Z,10.30
2018-12-29T12:53:51.306Z,11.00
2018-12-29T12:58:55.073Z,11.47
2018-12-29T13:03:59.135Z,10.00
2018-12-29T13:09:03.589Z,10.13
2018-12-29T13:14:07.253Z,8.17
2018-12-29T13:19:10.925Z,8.57
2018-12-29T13:24:14.683Z,7.90
2018-12-29T13:29:19.383Z,7.07
2018-12-29T13:34:23.127Z,8.00
2018-12-29T13:39:26.913Z,7.43
2018-12-29T13:44:30.588Z,7.13
2018-12-29T13:49:34.255Z,8.13
2018-12-29T13:54:38.119Z,8.33
2018-12-29T13:59:42.370Z,7.77
2018-12-29T14:04:46.195Z,6.70
2018-12-29T14:09:50.005Z,7.33
2018-12-29T14:14:53.741Z,6.40
2018-12-29T14:19:57.843Z,6.60
2018-12-29T14:25:01.550Z,5.87
2018-12-29T14:30:06.015Z,5.53
2018-12-29T14:35:09.833Z,5.60
2018-12-29T14:40:13.665Z,5.43
2018-12-29T14:45:17.811Z,5.13
2018-12-29T14:50:21.537Z,5.47
2018-12-29T14:55:25.191Z,5.40
2018-12-29T15:00:29.015Z,6.37
2018-12-29T15:05:32.706Z,5.90
2018-12-29T15:10:36.730Z,6.30
2018-12-29T15:15:41.019Z,6.00
2018-12-29T15:20:45.060Z,5.63
2018-12-29T15:25:49.156Z,6.30
2018-12-29T15:30:52.914Z,6.00
2018-12-29T15:35:56.748Z,6.27
2018-12-29T15:41:00.835Z,7.07
2018-12-29T15:46:05.243Z,7.63
2018-12-29T15:51:09.278Z,6.77
2018-12-29T15:56:13.396Z,6.10
2018-12-29T16:01:17.217Z,6.73
2018-12-29T16:06:21.010Z,6.90
2018-12-29T16:11:26.430Z,5.93
2018-12-29T16:16:30.645Z,6.33
2018-12-29T16:21:34.791Z,5.90
2018-12-29T16:26:38.582Z,6.20
2018-12-29T16:31:42.769Z,5.27
2018-12-29T16:36:46.993Z,5.93
2018-12-29T16:41:51.026Z,5.90
2018-12-29T16:46:54.784Z,6.37
2018-12-29T16:51:58.527Z,5.67
2018-12-29T16:57:02.499Z,5.80
2018-12-29T17:02:06.454Z,6.33
2018-12-29T17:07:10.273Z,6.17
2018-12-29T17:12:13.951Z,6.00
2018-12-29T17:17:18.247Z,5.73
2018-12-29T17:22:22.017Z,6.27
2018-12-29T17:27:25.776Z,5.30
2018-12-29T17:32:29.878Z,5.93
2018-12-29T17:37:33.927Z,5.50
2018-12-29T17:42:38.022Z,4.83
2018-12-29T17:47:42.216Z,5.00
2018-12-29T17:52:45.913Z,4.37
2018-12-29T17:57:49.780Z,4.57
2018-12-29T18:02:53.628Z,4.87
2018-12-29T18:07:57.329Z,4.13
2018-12-29T18:13:01.492Z,5.00
2018-12-29T18:18:05.357Z,5.30
2018-12-29T18:23:09.703Z,4.77
2018-12-29T18:28:13.488Z,4.57
2018-12-29T18:33:17.308Z,4.17
2018-12-29T18:38:22.153Z,4.20
2018-12-29T18:43:25.985Z,4.10
2018-12-29T18:48:29.787Z,4.33
2018-12-29T18:53:33.588Z,4.63
2018-12-29T18:58:37.463Z,5.13
2018-12-29T19:03:41.269Z,4.30
2018-12-29T19:08:45.449Z,4.73
2018-12-29T19:13:49.250Z,4.80
2018-12-29T19:18:53.277Z,5.10
2018-12-29T19:23:57.894Z,5.00
2018-12-29T19:29:02.127Z,5.40
2018-12-29T19:34:06.132Z,5.00
2018-12-29T19:39:10.393Z,4.30
2018-12-29T19:44:14.566Z,4.47
2018-12-29T19:49:18.668Z,5.07
2018-12-29T19:54:30.380Z,4.70
2018-12-29T19:59:34.548Z,5.10
2018-12-29T20:04:38.367Z,5.27
2018-12-29T20:09:53.518Z,4.63
2018-12-29T20:14:57.223Z,4.47
2018-12-29T20:20:01.568Z,4.27
2018-12-29T20:25:06.080Z,4.20
2018-12-29T20:30:10.337Z,4.10
2018-12-29T20:35:14.163Z,4.20
2018-12-29T20:40:17.985Z,4.90
2018-12-29T20:45:22.470Z,4.00
2018-12-29T20:50:26.236Z,3.90
2018-12-29T20:55:30.208Z,3.43
2018-12-29T21:00:34.133Z,3.43
2018-12-29T21:05:37.956Z,4.03
2018-12-29T21:10:41.743Z,3.33
2018-12-29T21:15:48.773Z,3.27
2018-12-29T21:20:52.707Z,2.93
2018-12-29T21:25:57.039Z,2.97
2018-12-29T21:31:00.873Z,2.80
2018-12-29T21:36:04.847Z,3.37
2018-12-29T21:41:08.760Z,3.17
2018-12-29T21:46:12.494Z,2.73
2018-12-29T21:51:16.285Z,2.60
2018-12-29T21:56:20.146Z,3.00
2018-12-29T22:01:23.944Z,1.90
2018-12-29T22:06:27.796Z,1.97
2018-12-29T22:11:31.629Z,1.40
2018-12-29T22:16:35.440Z,1.70
2018-12-29T22:21:39.904Z,2.00
2018-12-29T22:26:43.652Z,2.20
2018-12-29T22:31:47.432Z,1.60
2018-12-29T22:36:51.491Z,1.80
2018-12-29T22:41:55.274Z,2.17
2018-12-29T22:46:59.353Z,1.93
2018-12-29T22:52:03.186Z,1.90
2018-12-29T22:57:06.965Z,1.40
2018-12-29T23:02:10.881Z,1.40
2018-12-29T23:07:14.673Z,1.40
2018-12-29T23:12:19.533Z,1.47
2018-12-29T23:17:23.254Z,1.40
2018-12-29T23:22:27.200Z,1.30
2018-12-29T23:27:31.268Z,1.20
2018-12-29T23:32:35.009Z,1.50
2018-12-29T23:37:38.821Z,1.33
2018-12-29T23:42:43.139Z,1.20
2018-12-29T23:47:46.808Z,1.40
2018-12-29T23:52:50.945Z,1.43
2018-12-29T23:57:55.006Z,1.17
